Kaprijke, Belgium
Current Conditions -  °F | °C
As of 3:55 PM on Wednesday 26 Nov 2014 (Local Time) from EHFS Reporting Station
Haze Haze  
Wind Chill: 40°   Ceiling: 400
Heat Index: 46°   Visibility: 1.3mi
Dew Point: 46°   Wind: 15mph
Humidity: 100%   Direction: 110°ESE
Pressure: 29.85"   Gusts: NA
Location:  51.22°N, 3.62°E
Report Text: EHFS 261455Z AUTO 11013KT 080V140 2200 BR SCT003/// OVC004///08/08 Q1011
Loading
Personal Weather Stations






























Interactive Weather Map New forecast layout! Learn more

10-Day Weather Forecast

Advertisements
Track Severe Weather on mobile